createdAt,value
2022-10-18T00:01:52.883Z,15.60
2022-10-18T00:05:00.622Z,12.77
2022-10-18T00:08:05.631Z,11.70
2022-10-18T00:11:10.853Z,13.93
2022-10-18T00:14:15.979Z,15.30
2022-10-18T00:17:20.942Z,14.25
2022-10-18T00:20:28.743Z,15.30
2022-10-18T00:23:34.445Z,17.70
2022-10-18T00:26:39.801Z,11.88
2022-10-18T00:29:44.882Z,13.13
2022-10-18T00:32:49.966Z,14.73
2022-10-18T00:35:57.484Z,15.48
2022-10-18T00:39:02.543Z,13.70
2022-10-18T00:42:07.521Z,16.05
2022-10-18T00:45:21.380Z,12.18
2022-10-18T00:48:26.829Z,13.48
2022-10-18T00:51:36.816Z,16.10
2022-10-18T00:54:43.760Z,12.88
2022-10-18T00:57:49.254Z,14.60
2022-10-18T01:00:54.351Z,17.17
2022-10-18T01:03:59.654Z,12.40
2022-10-18T01:07:08.834Z,14.75
2022-10-18T01:10:19.831Z,17.88
2022-10-18T01:13:33.395Z,13.45
2022-10-18T01:16:41.108Z,13.75
2022-10-18T01:20:01.271Z,13.50
2022-10-18T01:23:13.593Z,13.52
2022-10-18T01:26:24.552Z,13.75
2022-10-18T01:29:33.565Z,16.33
2022-10-18T01:32:42.856Z,11.48
2022-10-18T01:35:50.934Z,15.02
2022-10-18T01:38:57.563Z,15.93
2022-10-18T01:42:04.594Z,12.88
2022-10-18T01:45:11.380Z,15.50
2022-10-18T01:48:19.660Z,11.20
2022-10-18T01:51:27.268Z,13.75
2022-10-18T01:54:34.777Z,13.70
2022-10-18T01:57:41.249Z,14.90
2022-10-18T02:00:46.714Z,16.77
2022-10-18T02:03:57.588Z,13.02
2022-10-18T02:07:07.267Z,15.85
2022-10-18T02:13:22.561Z,14.40
2022-10-18T02:16:48.810Z,14.02
2022-10-18T02:19:58.209Z,16.75
2022-10-18T02:23:04.738Z,13.73
2022-10-18T02:26:09.874Z,13.45
2022-10-18T02:29:15.635Z,12.68
2022-10-18T02:32:23.020Z,14.15
2022-10-18T02:35:32.677Z,13.60
2022-10-18T02:38:38.054Z,13.40
2022-10-18T02:41:43.498Z,13.32
2022-10-18T02:44:48.619Z,15.23
2022-10-18T02:47:54.318Z,15.93
2022-10-18T02:51:01.836Z,14.93
2022-10-18T02:54:08.583Z,14.13
2022-10-18T02:57:13.793Z,12.00
2022-10-18T03:00:19.037Z,14.98
2022-10-18T03:03:26.848Z,14.10
2022-10-18T03:06:34.858Z,12.60
2022-10-18T03:09:39.766Z,12.55
2022-10-18T03:12:44.962Z,12.55
2022-10-18T03:15:49.881Z,13.27
2022-10-18T03:18:54.909Z,13.57
2022-10-18T03:22:02.875Z,12.07
2022-10-18T03:25:08.133Z,20.13
2022-10-18T03:28:13.062Z,13.77
2022-10-18T03:31:18.208Z,16.10
2022-10-18T03:34:23.315Z,12.68
2022-10-18T03:37:30.881Z,12.80
2022-10-18T03:40:35.841Z,12.35
2022-10-18T03:43:40.927Z,14.48
2022-10-18T03:46:45.877Z,14.43
2022-10-18T03:49:53.282Z,11.55
2022-10-18T03:53:04.064Z,13.23
2022-10-18T03:56:09.723Z,15.50
2022-10-18T03:59:14.652Z,13.55
2022-10-18T04:02:19.579Z,16.55
2022-10-18T04:05:24.688Z,14.93
2022-10-18T04:08:32.424Z,9.77
2022-10-18T04:11:37.687Z,15.57
2022-10-18T04:14:42.799Z,15.13
2022-10-18T04:17:47.746Z,12.93
2022-10-18T04:20:52.828Z,13.68
2022-10-18T04:24:00.546Z,13.27
2022-10-18T04:27:05.462Z,15.33
2022-10-18T04:30:11.119Z,15.10
2022-10-18T04:33:16.120Z,11.75
2022-10-18T04:36:21.336Z,15.20
2022-10-18T04:39:29.033Z,13.25
2022-10-18T04:42:34.060Z,12.77
2022-10-18T04:45:39.534Z,12.13
2022-10-18T04:48:44.597Z,16.23
2022-10-18T04:51:49.557Z,13.70
2022-10-18T04:54:57.322Z,15.75
2022-10-18T04:58:02.253Z,15.55
2022-10-18T05:01:07.986Z,13.93
2022-10-18T05:04:13.051Z,12.30
2022-10-18T05:07:18.306Z,12.50
2022-10-18T05:10:26.154Z,13.82
2022-10-18T05:13:31.292Z,13.90
2022-10-18T05:16:36.214Z,23.15
2022-10-18T05:19:41.423Z,13.63
2022-10-18T05:22:46.321Z,14.40
2022-10-18T05:25:54.218Z,16.67
2022-10-18T05:28:59.329Z,10.63
2022-10-18T05:32:04.506Z,17.73
2022-10-18T05:35:10.312Z,15.63
2022-10-18T05:38:15.373Z,14.18
2022-10-18T05:41:23.241Z,14.43
2022-10-18T05:44:28.436Z,16.23
2022-10-18T05:50:40.351Z,19.58
2022-10-18T05:53:45.739Z,15.73
2022-10-18T05:56:53.439Z,15.35
2022-10-18T05:59:58.321Z,17.33
2022-10-18T06:03:03.510Z,17.88
2022-10-18T06:06:09.761Z,17.50
2022-10-18T06:09:15.009Z,15.48
2022-10-18T06:12:22.510Z,17.38
2022-10-18T06:15:27.558Z,15.93
2022-10-18T06:18:33.363Z,17.73
2022-10-18T06:21:38.254Z,19.55
2022-10-18T06:24:43.504Z,23.30
2022-10-18T06:27:51.085Z,16.95
2022-10-18T06:30:56.065Z,20.33
2022-10-18T06:34:01.553Z,20.60
2022-10-18T06:37:06.521Z,19.50
2022-10-18T06:40:12.588Z,17.08
2022-10-18T06:43:21.505Z,22.75
2022-10-18T06:46:26.982Z,19.35
2022-10-18T06:49:31.971Z,22.08
2022-10-18T06:52:37.150Z,19.42
2022-10-18T06:55:42.269Z,18.88
2022-10-18T06:58:50.052Z,23.63
2022-10-18T07:01:55.387Z,27.73
2022-10-18T07:05:00.423Z,25.55
2022-10-18T07:08:05.540Z,22.65
2022-10-18T07:11:10.920Z,23.33
2022-10-18T07:14:18.777Z,24.60
2022-10-18T07:17:23.747Z,20.30
2022-10-18T07:20:28.869Z,25.58
2022-10-18T07:23:35.659Z,26.92
2022-10-18T07:26:40.614Z,22.70
2022-10-18T07:29:49.108Z,21.67
2022-10-18T07:32:54.341Z,23.55
2022-10-18T07:35:59.792Z,26.13
2022-10-18T07:39:05.017Z,20.88
2022-10-18T07:42:10.467Z,25.85
2022-10-18T07:45:18.074Z,29.63
2022-10-18T07:48:23.119Z,21.80
2022-10-18T07:51:28.381Z,23.77
2022-10-18T07:54:33.427Z,20.42
2022-10-18T07:57:38.518Z,20.40
2022-10-18T08:00:46.012Z,21.08
2022-10-18T08:03:51.203Z,20.47
2022-10-18T08:06:56.145Z,22.60
2022-10-18T08:10:01.201Z,24.88
2022-10-18T08:13:06.328Z,23.95
2022-10-18T08:16:15.035Z,23.23
2022-10-18T08:19:20.065Z,21.33
2022-10-18T08:22:25.077Z,21.42
2022-10-18T08:25:30.075Z,21.92
2022-10-18T08:28:37.069Z,21.13
2022-10-18T08:31:44.813Z,19.13
2022-10-18T08:34:50.153Z,18.27
2022-10-18T08:37:55.174Z,22.45
2022-10-18T08:41:01.794Z,18.70
2022-10-18T08:44:09.323Z,26.80
2022-10-18T08:47:19.450Z,28.90
2022-10-18T08:50:26.328Z,16.10
2022-10-18T08:53:36.144Z,20.77
2022-10-18T08:56:45.209Z,21.35
2022-10-18T08:59:50.303Z,17.95
2022-10-18T09:03:04.859Z,22.55
2022-10-18T09:06:17.671Z,18.73
2022-10-18T09:09:31.846Z,21.13
2022-10-18T09:12:46.361Z,20.02
2022-10-18T09:15:54.835Z,16.55
2022-10-18T09:22:13.534Z,19.88
2022-10-18T09:25:21.126Z,19.80
2022-10-18T09:28:31.571Z,13.35
2022-10-18T09:31:43.774Z,12.73
2022-10-18T09:34:54.076Z,12.95
2022-10-18T09:38:04.923Z,23.23
2022-10-18T09:41:11.697Z,18.40
2022-10-18T09:44:18.820Z,13.93
2022-10-18T09:47:26.197Z,12.50
2022-10-18T09:50:33.387Z,13.35
2022-10-18T09:53:43.687Z,11.25
2022-10-18T09:56:51.001Z,16.30
2022-10-18T09:59:56.222Z,10.60
2022-10-18T10:03:02.076Z,11.18
2022-10-18T10:06:18.197Z,11.23
2022-10-18T10:09:29.810Z,11.82
2022-10-18T10:12:35.523Z,13.02
2022-10-18T10:15:42.584Z,11.13
2022-10-18T10:18:47.740Z,12.85
2022-10-18T10:21:54.512Z,13.10
2022-10-18T10:25:02.669Z,11.63
2022-10-18T10:28:09.947Z,11.63
2022-10-18T10:31:21.882Z,11.40
2022-10-18T10:34:32.229Z,11.35
2022-10-18T10:37:38.452Z,10.45
2022-10-18T10:40:50.543Z,11.55
2022-10-18T10:43:55.653Z,12.70
2022-10-18T10:47:01.026Z,12.10
2022-10-18T10:50:13.108Z,11.95
2022-10-18T10:53:29.402Z,11.95
2022-10-18T10:56:39.174Z,11.88
2022-10-18T10:59:46.236Z,12.27
2022-10-18T11:03:00.607Z,12.18
2022-10-18T11:06:29.197Z,11.13
2022-10-18T11:09:40.181Z,12.52
2022-10-18T11:12:48.689Z,14.30
2022-10-18T11:15:55.891Z,14.18
2022-10-18T11:19:01.370Z,18.60
2022-10-18T11:22:08.084Z,15.77
2022-10-18T11:25:15.992Z,16.85
2022-10-18T11:28:30.867Z,17.85
2022-10-18T11:31:38.962Z,15.95
2022-10-18T11:34:52.235Z,17.77
2022-10-18T11:38:07.298Z,18.42
2022-10-18T11:41:20.550Z,18.25
2022-10-18T11:44:33.425Z,17.88
2022-10-18T11:47:44.059Z,17.10
2022-10-18T11:50:54.626Z,17.15
2022-10-18T11:54:06.869Z,16.65
2022-10-18T11:57:14.822Z,17.60
2022-10-18T12:03:40.371Z,19.00
2022-10-18T12:06:46.372Z,17.45
2022-10-18T12:09:52.362Z,17.67
2022-10-18T12:13:02.482Z,19.52
2022-10-18T12:16:13.773Z,15.48
2022-10-18T12:22:59.440Z,19.58
2022-10-18T12:26:05.860Z,18.70
2022-10-18T12:29:19.934Z,19.13
2022-10-18T12:32:29.799Z,17.92
2022-10-18T12:35:39.065Z,22.60
2022-10-18T12:38:45.390Z,18.63
2022-10-18T12:41:50.925Z,19.27
2022-10-18T12:45:03.855Z,19.23
2022-10-18T12:48:11.709Z,17.60
2022-10-18T12:51:18.024Z,16.90
2022-10-18T12:54:25.223Z,17.77
2022-10-18T12:57:50.497Z,14.30
2022-10-18T13:01:06.652Z,10.90
2022-10-18T13:04:34.430Z,10.02
2022-10-18T13:07:43.386Z,12.07
2022-10-18T13:10:48.599Z,9.93
2022-10-18T13:14:01.069Z,9.70
2022-10-18T13:17:10.283Z,7.13
2022-10-18T13:20:27.385Z,8.65
2022-10-18T13:23:39.519Z,8.20
2022-10-18T13:26:58.131Z,5.65
2022-10-18T13:30:18.156Z,5.45
2022-10-18T13:33:34.540Z,3.72
2022-10-18T13:36:42.269Z,3.17
2022-10-18T13:39:47.804Z,3.00
2022-10-18T13:42:52.887Z,4.85
2022-10-18T13:45:58.446Z,2.08
2022-10-18T13:49:08.872Z,2.55
2022-10-18T13:52:22.696Z,4.35
2022-10-18T13:55:42.627Z,3.03
2022-10-18T13:59:05.733Z,3.88
2022-10-18T14:02:49.956Z,2.45
2022-10-18T14:05:54.794Z,4.72
2022-10-18T14:09:13.813Z,3.83
2022-10-18T14:12:32.046Z,3.58
2022-10-18T14:15:38.744Z,2.58
2022-10-18T14:18:45.685Z,6.07
2022-10-18T14:21:54.145Z,4.43
2022-10-18T14:25:02.180Z,2.65
2022-10-18T14:28:14.976Z,1.80
2022-10-18T14:31:21.371Z,1.52
2022-10-18T14:34:26.312Z,3.92
2022-10-18T14:37:32.086Z,2.88
2022-10-18T14:40:41.400Z,4.45
2022-10-18T14:43:48.217Z,4.93
2022-10-18T14:46:54.354Z,1.40
2022-10-18T14:50:01.046Z,1.45
2022-10-18T14:53:09.010Z,1.85
2022-10-18T14:56:26.914Z,4.68
2022-10-18T14:59:33.058Z,3.50
2022-10-18T15:02:38.767Z,1.35
2022-10-18T15:05:54.528Z,2.55
2022-10-18T15:09:00.382Z,3.45
2022-10-18T15:12:08.871Z,1.33
2022-10-18T15:15:19.550Z,1.75
2022-10-18T15:18:25.940Z,2.03
2022-10-18T15:21:31.202Z,1.38
2022-10-18T15:24:37.582Z,1.75
2022-10-18T15:27:47.018Z,1.25
2022-10-18T15:30:52.149Z,1.38
2022-10-18T15:33:58.009Z,2.30
2022-10-18T15:37:02.950Z,1.50
2022-10-18T15:40:20.780Z,1.58
2022-10-18T15:43:40.715Z,6.43
2022-10-18T15:46:46.364Z,0.95
2022-10-18T15:49:56.770Z,1.52
2022-10-18T15:53:22.012Z,0.70
2022-10-18T15:56:34.468Z,2.35
2022-10-18T15:59:51.950Z,2.40
2022-10-18T16:02:57.095Z,1.50
2022-10-18T16:06:03.497Z,1.63
2022-10-18T16:09:09.073Z,2.40
2022-10-18T16:12:14.172Z,1.60
2022-10-18T16:15:22.265Z,2.75
2022-10-18T16:18:28.235Z,1.70
2022-10-18T16:21:33.970Z,0.95
2022-10-18T16:24:39.244Z,1.70
2022-10-18T16:27:44.306Z,2.90
2022-10-18T16:30:56.443Z,1.70
2022-10-18T16:34:02.212Z,3.45
2022-10-18T16:37:07.309Z,0.73
2022-10-18T16:40:29.861Z,1.48
2022-10-18T16:43:35.138Z,0.60
2022-10-18T16:46:43.630Z,1.60
2022-10-18T16:52:53.275Z,1.00
2022-10-18T16:55:59.516Z,1.02
2022-10-18T16:59:04.502Z,1.52
2022-10-18T17:02:12.455Z,1.75
2022-10-18T17:05:17.599Z,1.45
2022-10-18T17:08:24.221Z,0.90
2022-10-18T17:11:30.522Z,1.30
2022-10-18T17:14:37.157Z,2.10
2022-10-18T17:17:45.022Z,0.95
2022-10-18T17:20:50.447Z,0.85
2022-10-18T17:23:55.590Z,0.60
2022-10-18T17:27:00.718Z,1.27
2022-10-18T17:30:06.033Z,3.92
2022-10-18T17:33:14.606Z,0.77
2022-10-18T17:39:24.555Z,2.13
2022-10-18T17:42:29.596Z,1.38
2022-10-18T17:45:34.657Z,1.20
2022-10-18T17:48:42.429Z,4.13
2022-10-18T17:51:47.847Z,3.47
2022-10-18T17:54:52.955Z,2.55
2022-10-18T17:57:57.994Z,4.50
2022-10-18T18:01:11.596Z,3.35
2022-10-18T18:04:19.440Z,1.83
2022-10-18T18:07:24.389Z,1.90
2022-10-18T18:10:30.157Z,2.65
2022-10-18T18:13:35.213Z,3.58
2022-10-18T18:16:41.649Z,2.60
2022-10-18T18:19:49.258Z,1.50
2022-10-18T18:22:54.392Z,1.37
2022-10-18T18:26:00.346Z,2.63
2022-10-18T18:29:05.847Z,1.42
2022-10-18T18:32:10.918Z,2.42
2022-10-18T18:35:18.606Z,2.03
2022-10-18T18:38:23.550Z,2.60
2022-10-18T18:41:29.300Z,0.98
2022-10-18T18:44:35.476Z,0.98
2022-10-18T18:47:41.552Z,1.88
2022-10-18T18:50:52.492Z,1.52
2022-10-18T18:53:57.689Z,1.05
2022-10-18T18:57:05.707Z,2.85
2022-10-18T19:00:12.882Z,1.63
2022-10-18T19:03:17.797Z,1.55
2022-10-18T19:06:26.959Z,2.90
2022-10-18T19:09:32.995Z,2.17
2022-10-18T19:12:38.015Z,2.95
2022-10-18T19:15:43.100Z,3.33
2022-10-18T19:18:52.632Z,1.75
2022-10-18T19:22:00.845Z,3.53
2022-10-18T19:25:06.088Z,1.20
2022-10-18T19:28:11.147Z,2.38
2022-10-18T19:31:16.146Z,1.45
2022-10-18T19:34:21.645Z,2.13
2022-10-18T19:37:29.532Z,2.15
2022-10-18T19:40:34.575Z,1.65
2022-10-18T19:43:39.612Z,1.30
2022-10-18T19:46:44.719Z,1.13
2022-10-18T19:49:50.016Z,1.45
2022-10-18T19:52:57.857Z,1.58
2022-10-18T19:56:02.914Z,3.03
2022-10-18T19:59:08.042Z,1.67
2022-10-18T20:02:15.961Z,1.42
2022-10-18T20:05:21.082Z,1.48
2022-10-18T20:08:29.250Z,1.83
2022-10-18T20:11:34.361Z,1.27
2022-10-18T20:14:39.499Z,1.30
2022-10-18T20:17:44.522Z,1.90
2022-10-18T20:20:50.027Z,1.23
2022-10-18T20:23:57.731Z,2.95
2022-10-18T20:27:03.178Z,1.67
2022-10-18T20:30:11.243Z,2.88
2022-10-18T20:33:16.690Z,2.92
2022-10-18T20:36:21.997Z,3.25
2022-10-18T20:39:30.013Z,2.67
2022-10-18T20:42:34.943Z,2.38
2022-10-18T20:45:39.958Z,1.95
2022-10-18T20:48:45.109Z,1.45
2022-10-18T20:51:50.184Z,2.45
2022-10-18T20:54:58.010Z,1.35
2022-10-18T20:58:02.936Z,1.37
2022-10-18T21:01:08.799Z,2.55
2022-10-18T21:04:14.030Z,2.15
2022-10-18T21:07:19.432Z,1.85
2022-10-18T21:10:27.463Z,2.05
2022-10-18T21:13:32.545Z,0.88
2022-10-18T21:16:38.581Z,0.95
2022-10-18T21:19:43.722Z,1.27
2022-10-18T21:22:48.961Z,0.68
2022-10-18T21:25:56.687Z,2.03
2022-10-18T21:29:02.437Z,0.50
2022-10-18T21:32:07.646Z,1.13
2022-10-18T21:35:13.385Z,0.88
2022-10-18T21:38:18.925Z,1.15
2022-10-18T21:41:26.798Z,0.80
2022-10-18T21:44:31.904Z,3.00
2022-10-18T21:47:37.284Z,1.35
2022-10-18T21:50:42.351Z,1.23
2022-10-18T21:53:48.141Z,0.85
2022-10-18T21:56:55.818Z,1.73
2022-10-18T22:00:00.984Z,0.80
2022-10-18T22:03:09.625Z,1.77
2022-10-18T22:06:16.780Z,3.38
2022-10-18T22:09:21.781Z,0.77
2022-10-18T22:12:29.344Z,0.80
2022-10-18T22:15:34.435Z,2.57
2022-10-18T22:18:39.705Z,1.27
2022-10-18T22:21:44.842Z,2.78
2022-10-18T22:24:51.121Z,2.22
2022-10-18T22:27:58.626Z,2.05
2022-10-18T22:31:03.735Z,1.20
2022-10-18T22:34:09.670Z,3.47
2022-10-18T22:37:14.780Z,0.77
2022-10-18T22:40:19.768Z,1.52
2022-10-18T22:43:27.420Z,1.48
2022-10-18T22:46:32.793Z,1.90
2022-10-18T22:49:37.805Z,3.40
2022-10-18T22:52:42.930Z,2.45
2022-10-18T22:55:47.919Z,4.00
2022-10-18T22:58:55.818Z,1.77
2022-10-18T23:02:01.050Z,1.77
2022-10-18T23:05:06.343Z,1.13
2022-10-18T23:08:12.131Z,2.38
2022-10-18T23:11:17.268Z,1.42
2022-10-18T23:14:25.118Z,1.70
2022-10-18T23:17:30.345Z,1.10
2022-10-18T23:20:35.386Z,1.23
2022-10-18T23:23:41.638Z,3.13
2022-10-18T23:26:46.553Z,1.38
2022-10-18T23:29:54.303Z,1.50
2022-10-18T23:32:59.285Z,2.47
2022-10-18T23:36:04.165Z,3.22
2022-10-18T23:39:09.292Z,1.15
2022-10-18T23:42:14.234Z,1.92
2022-10-18T23:45:22.028Z,2.63
2022-10-18T23:48:27.099Z,1.55
2022-10-18T23:51:32.140Z,3.55
2022-10-18T23:54:37.258Z,2.47
2022-10-18T23:57:42.170Z,2.00
